| time (UTC) | temp F | wind direction | speed knots | gust knots | rain 1hr in | rain 24hr in | rain mn in | humidity % | barometer mb |
| 20260507115004 | 54 | 56 | 0.9 | 0.9 | 0.00 | 0.00 | 0.02 | 84 | 1018.3 |
| 20260507114504 | 54 | 48 | 0.9 | 0.9 | 0.00 | 0.00 | 0.02 | 85 | 1017.9 |
| 20260507114004 | 54 | 50 | 0.0 | 0.0 | 0.00 | 0.00 | 0.02 | 87 | 1017.9 |
| 20260507113504 | 54 | 54 | 0.0 | 0.9 | 0.00 | 0.00 | 0.02 | 86 | 1018.3 |
| 20260507113005 | 54 | 51 | 0.0 | 0.0 | 0.00 | 0.00 | 0.02 | 87 | 1018.3 |
| 20260507112504 | 54 | 54 | 0.9 | 0.9 | 0.00 | 0.00 | 0.02 | 88 | 1018.3 |
| 20260507112006 | 54 | 54 | 0.0 | 0.0 | 0.00 | 0.00 | 0.02 | 88 | 1018.3 |
| 20260507111506 | 54 | 55 | 0.9 | 0.9 | 0.00 | 0.00 | 0.02 | 88 | 1018.3 |
| 20260507111004 | 54 | 54 | 0.9 | 0.9 | 0.00 | 0.00 | 0.02 | 88 | 1017.9 |
| 20260507110504 | 54 | 53 | 0.0 | 0.0 | 0.00 | 0.00 | 0.02 | 89 | 1017.9 |
| 20260507110005 | 54 | 52 | 0.0 | 0.0 | 0.00 | 0.00 | 0.02 | 88 | 1017.9 |
| 20260507105507 | 54 | 52 | 0.0 | 0.0 | 0.00 | 0.00 | 0.02 | 89 | 1017.9 |
| 20260507105004 | 54 | 49 | 0.0 | 0.0 | 0.00 | 0.00 | 0.02 | 89 | 1017.9 |
| 20260507104504 | 54 | 51 | 0.0 | 0.0 | 0.00 | 0.00 | 0.02 | 90 | 1017.9 |
| 20260507104005 | 54 | 51 | 0.0 | 0.0 | 0.00 | 0.00 | 0.02 | 88 | 1017.9 |
| 20260507103505 | 54 | 47 | 0.0 | 0.0 | 0.00 | 0.00 | 0.02 | 88 | 1017.6 |
| 20260507103006 | 54 | 47 | 0.0 | 0.0 | 0.00 | 0.00 | 0.02 | 89 | 1017.6 |
| 20260507102505 | 54 | 43 | 0.0 | 0.9 | 0.00 | 0.00 | 0.02 | 89 | 1017.3 |
| 20260507102006 | 54 | 54 | 0.0 | 0.0 | 0.00 | 0.00 | 0.02 | 87 | 1017.3 |
| 20260507101504 | 54 | 52 | 0.0 | 0.0 | 0.00 | 0.00 | 0.02 | 87 | 1017.3 |
| 20260507101004 | 54 | 52 | 0.0 | 0.0 | 0.00 | 0.00 | 0.02 | 89 | 1017.3 |
| 20260507100505 | 54 | 54 | 0.9 | 0.9 | 0.00 | 0.00 | 0.02 | 88 | 1017.3 |
| 20260507100005 | 54 | 52 | 0.0 | 0.0 | 0.00 | 0.00 | 0.02 | 88 | 1017.3 |
| 20260507095505 | 54 | 52 | 0.0 | 0.0 | 0.00 | 0.00 | 0.02 | 87 | 1017.3 |
| 20260507095004 | 54 | 51 | 0.0 | 0.0 | 0.00 | 0.00 | 0.02 | 88 | 1017.3 |
| 20260507094505 | 54 | 53 | 0.9 | 0.9 | 0.00 | 0.00 | 0.02 | 88 | 1017.3 |
| 20260507094005 | 53 | 54 | 0.0 | 0.0 | 0.00 | 0.00 | 0.02 | 89 | 1017.3 |
| 20260507093506 | 53 | 49 | 0.9 | 0.9 | 0.00 | 0.00 | 0.02 | 89 | 1017.3 |
| 20260507093004 | 54 | 52 | 0.0 | 0.0 | 0.00 | 0.00 | 0.02 | 87 | 1017.3 |
| 20260507092504 | 54 | 46 | 0.0 | 0.0 | 0.00 | 0.00 | 0.02 | 89 | 1017.3 |
| 20260507092004 | 54 | 46 | 0.0 | 0.0 | 0.00 | 0.00 | 0.02 | 89 | 1017.3 |
| 20260507091504 | 54 | 52 | 0.0 | 0.0 | 0.00 | 0.00 | 0.02 | 88 | 1017.3 |
| 20260507091005 | 54 | 53 | 0.0 | 0.0 | 0.00 | 0.00 | 0.02 | 88 | 1017.3 |
| 20260507090505 | 54 | 56 | 1.7 | 1.7 | 0.00 | 0.00 | 0.02 | 88 | 1017.3 |
| 20260507090005 | 54 | 52 | 0.0 | 0.0 | 0.00 | 0.00 | 0.02 | 88 | 1017.3 |
| 20260507085505 | 54 | 47 | 0.0 | 0.0 | 0.00 | 0.00 | 0.02 | 88 | 1017.3 |
| 20260507085006 | 54 | 65 | 0.9 | 0.9 | 0.00 | 0.00 | 0.02 | 87 | 1017.3 |
| 20260507084505 | 54 | 54 | 0.0 | 0.0 | 0.00 | 0.00 | 0.02 | 90 | 1017.3 |
| 20260507084005 | 54 | 55 | 0.0 | 0.0 | 0.00 | 0.00 | 0.02 | 88 | 1017.3 |
| 20260507083504 | 54 | 51 | 0.0 | 0.0 | 0.00 | 0.00 | 0.02 | 90 | 1017.3 |
| 20260507083005 | 54 | 49 | 0.0 | 0.0 | 0.00 | 0.00 | 0.02 | 89 | 1017.3 |
| 20260507082504 | 54 | 51 | 0.0 | 0.0 | 0.00 | 0.00 | 0.02 | 90 | 1016.9 |
| 20260507082004 | 54 | 48 | 0.0 | 0.0 | 0.00 | 0.00 | 0.02 | 91 | 1016.9 |
| 20260507081504 | 53 | 54 | 0.9 | 0.9 | 0.00 | 0.00 | 0.02 | 91 | 1016.9 |
| 20260507081004 | 53 | 50 | 0.0 | 0.0 | 0.00 | 0.00 | 0.02 | 90 | 1016.9 |
| 20260507080504 | 54 | 54 | 0.9 | 0.9 | 0.00 | 0.00 | 0.02 | 89 | 1016.9 |
| 20260507080006 | 54 | 53 | 0.0 | 0.0 | 0.00 | 0.00 | 0.02 | 90 | 1016.9 |
| 20260507075505 | 53 | 49 | 0.0 | 0.0 | 0.00 | 0.00 | 0.02 | 90 | 1016.9 |
| 20260507075004 | 54 | 44 | 0.0 | 0.0 | 0.00 | 0.00 | 0.02 | 90 | 1016.9 |
| 20260507074505 | 53 | 80 | 0.9 | 0.9 | 0.00 | 0.00 | 0.02 | 89 | 1016.6 |
| 20260507074005 | 54 | 51 | 0.9 | 1.7 | 0.00 | 0.00 | 0.02 | 89 | 1016.6 |
| 20260507073505 | 54 | 45 | 0.0 | 0.9 | 0.00 | 0.00 | 0.02 | 88 | 1016.9 |
| 20260507073004 | 54 | 50 | 0.9 | 2.6 | 0.00 | 0.00 | 0.02 | 86 | 1016.9 |
| 20260507072504 | 54 | 61 | 0.9 | 1.7 | 0.00 | 0.00 | 0.02 | 86 | 1016.6 |
| 20260507072005 | 54 | 60 | 1.7 | 2.6 | 0.00 | 0.00 | 0.02 | 88 | 1016.6 |
| 20260507071505 | 55 | 60 | 0.9 | 0.9 | 0.00 | 0.00 | 0.02 | 89 | 1016.6 |
| 20260507071004 | 55 | 55 | 0.0 | 0.9 | 0.00 | 0.00 | 0.02 | 88 | 1016.6 |
| 20260507070504 | 55 | 69 | 1.7 | 2.6 | 0.00 | 0.00 | 0.02 | 88 | 1016.6 |
| 20260507070008 | 55 | 69 | 1.7 | 2.6 | 0.00 | 0.00 | 0.02 | 88 | 1016.9 |
| 20260507065505 | 56 | 204 | 0.0 | 0.9 | 0.00 | 0.00 | 0.02 | 89 | 1016.9 |
| 20260507065004 | 56 | 49 | 0.0 | 0.0 | 0.00 | 0.00 | 0.02 | 90 | 1016.9 |
| 20260507064505 | 56 | 57 | 0.9 | 0.9 | 0.00 | 0.00 | 0.02 | 90 | 1016.9 |
| 20260507064006 | 56 | 53 | 0.0 | 0.9 | 0.00 | 0.00 | 0.02 | 90 | 1016.9 |
| 20260507063505 | 56 | 54 | 0.9 | 0.9 | 0.00 | 0.00 | 0.02 | 90 | 1016.6 |
| 20260507063005 | 56 | 53 | 1.7 | 1.7 | 0.01 | 0.00 | 0.02 | 89 | 1016.6 |
| 20260507062504 | 56 | 58 | 1.7 | 1.7 | 0.01 | 0.00 | 0.02 | 89 | 1016.9 |
| 20260507062005 | 56 | 54 | 0.9 | 0.9 | 0.02 | 0.00 | 0.02 | 90 | 1016.9 |
| 20260507061504 | 56 | 53 | 0.9 | 1.7 | 0.02 | 0.00 | 0.02 | 90 | 1016.9 |
| 20260507061006 | 56 | 42 | 0.0 | 0.9 | 0.02 | 0.00 | 0.02 | 89 | 1016.9 |
| 20260507060504 | 57 | 52 | 0.0 | 0.9 | 0.02 | 0.00 | 0.02 | 90 | 1016.9 |
| 20260507060005 | 57 | 51 | 0.0 | 0.0 | 0.02 | 0.00 | 0.02 | 90 | 1016.9 |
| 20260507055505 | 57 | 36 | 0.0 | 0.0 | 0.03 | 0.00 | 0.02 | 90 | 1016.9 |
| 20260507055004 | 57 | 51 | 0.9 | 0.9 | 0.03 | 0.00 | 0.02 | 90 | 1016.9 |
| 20260507054504 | 57 | 55 | 0.9 | 0.9 | 0.03 | 0.00 | 0.02 | 92 | 1016.9 |
| 20260507054005 | 57 | 51 | 0.0 | 0.0 | 0.03 | 0.00 | 0.02 | 93 | 1016.9 |
| 20260507053505 | 57 | 53 | 0.0 | 0.0 | 0.03 | 0.00 | 0.02 | 93 | 1017.3 |
| 20260507053005 | 57 | 58 | 0.9 | 0.9 | 0.03 | 0.00 | 0.02 | 91 | 1017.3 |
| 20260507052504 | 57 | 48 | 0.0 | 0.0 | 0.02 | 0.00 | 0.01 | 93 | 1016.9 |
| 20260507052005 | 57 | 56 | 0.0 | 0.0 | 0.02 | 0.00 | 0.01 | 92 | 1016.9 |
| 20260507051504 | 57 | 46 | 0.0 | 0.9 | 0.02 | 0.00 | 0.00 | 92 | 1016.9 |
| 20260507051005 | 57 | 55 | 0.9 | 0.9 | 0.02 | 0.00 | 0.00 | 92 | 1016.9 |
| 20260507050504 | 57 | 52 | 0.9 | 0.9 | 0.02 | 0.00 | 0.00 | 91 | 1016.9 |
| 20260507050005 | 57 | 56 | 0.9 | 0.9 | 0.01 | 0.00 | 0.00 | 91 | 1017.3 |
| 20260507045505 | 58 | 49 | 0.0 | 0.9 | 0.01 | 0.00 | 0.00 | 89 | 1017.3 |
| 20260507045004 | 58 | 56 | 0.0 | 0.0 | 0.00 | 0.00 | 0.00 | 88 | 1017.3 |
| 20260507044504 | 58 | 50 | 1.7 | 1.7 | 0.00 | 0.00 | 0.00 | 84 | 1016.9 |
| 20260507044005 | 59 | 58 | 0.9 | 1.7 | 0.00 | 0.00 | 0.00 | 80 | 1016.9 |
| 20260507043504 | 59 | 54 | 1.7 | 1.7 | 0.00 | 0.00 | 0.00 | 78 | 1016.9 |
| 20260507043004 | 60 | 43 | 0.9 | 3.5 | 0.00 | 0.00 | 0.00 | 76 | 1016.9 |
| 20260507042504 | 60 | 60 | 1.7 | 2.6 | 0.00 | 0.00 | 0.00 | 78 | 1016.9 |
| 20260507042004 | 61 | 49 | 0.9 | 0.9 | 0.00 | 0.00 | 0.00 | 77 | 1016.9 |
| 20260507041504 | 61 | 21 | 0.0 | 0.9 | 0.00 | 0.00 | 0.00 | 76 | 1016.9 |
| 20260507041004 | 61 | 57 | 0.9 | 0.9 | 0.00 | 0.00 | 0.00 | 76 | 1016.6 |
| 20260507040505 | 62 | 59 | 0.9 | 1.7 | 0.00 | 0.00 | 0.00 | 75 | 1016.6 |
| 20260507040004 | 62 | 53 | 1.7 | 1.7 | 0.00 | 0.00 | 0.20 | 74 | 1016.3 |
| 20260507035505 | 62 | 39 | 0.0 | 1.7 | 0.00 | 0.00 | 0.20 | 73 | 1016.3 |
| 20260507035004 | 62 | 50 | 0.9 | 0.9 | 0.00 | 0.00 | 0.20 | 73 | 1016.3 |
| 20260507034504 | 62 | 56 | 1.7 | 1.7 | 0.00 | 0.00 | 0.20 | 72 | 1016.3 |
| 20260507034006 | 62 | 55 | 1.7 | 2.6 | 0.00 | 0.00 | 0.20 | 72 | 1016.3 |
| 20260507033504 | 63 | 55 | 0.9 | 0.9 | 0.00 | 0.00 | 0.20 | 72 | 1016.3 |
| 20260507033004 | 63 | 39 | 0.9 | 0.9 | 0.00 | 0.00 | 0.20 | 71 | 1016.3 |
| 20260507032504 | 63 | 50 | 0.9 | 0.9 | 0.00 | 0.00 | 0.20 | 71 | 1016.3 |
| 20260507032004 | 63 | 52 | 0.9 | 1.7 | 0.00 | 0.00 | 0.20 | 72 | 1016.3 |
| 20260507031505 | 63 | 26 | 1.7 | 2.6 | 0.00 | 0.00 | 0.20 | 71 | 1016.3 |
| 20260507031005 | 63 | 36 | 0.9 | 1.7 | 0.00 | 0.00 | 0.20 | 70 | 1016.3 |
| 20260507030504 | 64 | 54 | 0.9 | 1.7 | 0.00 | 0.00 | 0.20 | 70 | 1016.3 |
| 20260507030004 | 64 | 48 | 0.9 | 0.9 | 0.00 | 0.00 | 0.20 | 70 | 1015.9 |
| 20260507025504 | 64 | 47 | 0.9 | 0.9 | 0.00 | 0.00 | 0.20 | 71 | 1015.9 |
| 20260507025004 | 64 | 91 | 0.9 | 2.6 | 0.00 | 0.00 | 0.20 | 71 | 1015.9 |
| 20260507024505 | 64 | 66 | 0.9 | 0.9 | 0.00 | 0.00 | 0.20 | 70 | 1015.9 |
| 20260507024004 | 64 | 56 | 0.0 | 0.0 | 0.00 | 0.00 | 0.20 | 71 | 1015.9 |
| 20260507023505 | 64 | 25 | 0.9 | 0.9 | 0.00 | 0.00 | 0.20 | 71 | 1015.2 |
| 20260507023005 | 64 | 51 | 1.7 | 2.6 | 0.00 | 0.00 | 0.20 | 74 | 1015.2 |
| 20260507022504 | 65 | 58 | 0.9 | 0.9 | 0.00 | 0.00 | 0.20 | 77 | 1015.2 |
| 20260507022004 | 65 | 52 | 0.9 | 0.9 | 0.00 | 0.00 | 0.20 | 78 | 1015.2 |
| 20260507021504 | 65 | 59 | 0.9 | 1.7 | 0.00 | 0.00 | 0.20 | 78 | 1015.2 |
| 20260507021005 | 66 | 50 | 0.9 | 1.7 | 0.00 | 0.00 | 0.20 | 80 | 1015.2 |
| 20260507020504 | 66 | 57 | 0.9 | 1.7 | 0.00 | 0.00 | 0.20 | 80 | 1015.2 |
| 20260507020005 | 66 | 50 | 0.9 | 0.9 | 0.00 | 0.00 | 0.20 | 80 | 1015.2 |
| 20260507015505 | 66 | 58 | 1.7 | 1.7 | 0.00 | 0.00 | 0.20 | 79 | 1015.2 |
| 20260507015004 | 66 | 56 | 1.7 | 1.7 | 0.00 | 0.00 | 0.20 | 78 | 1015.2 |
| 20260507014504 | 67 | 54 | 0.0 | 0.0 | 0.00 | 0.00 | 0.20 | 78 | 1015.2 |
| 20260507014004 | 67 | 78 | 1.7 | 2.6 | 0.00 | 0.00 | 0.20 | 78 | 1015.2 |
| 20260507013504 | 67 | 66 | 2.6 | 3.5 | 0.00 | 0.00 | 0.20 | 77 | 1015.2 |
| 20260507013004 | 67 | 50 | 0.9 | 0.9 | 0.00 | 0.00 | 0.20 | 77 | 1015.2 |
| 20260507012505 | 67 | 57 | 0.9 | 0.9 | 0.00 | 0.00 | 0.20 | 76 | 1015.2 |
| 20260507012004 | 67 | 64 | 0.9 | 0.9 | 0.00 | 0.00 | 0.20 | 76 | 1015.2 |
| 20260507011504 | 68 | 46 | 0.9 | 0.9 | 0.00 | 0.00 | 0.20 | 76 | 1015.2 |
| 20260507011005 | 68 | 64 | 0.9 | 1.7 | 0.00 | 0.00 | 0.20 | 76 | 1015.2 |
| 20260507010506 | 68 | 50 | 0.9 | 1.7 | 0.00 | 0.00 | 0.20 | 77 | 1015.2 |
| 20260507010005 | 68 | 61 | 1.7 | 1.7 | 0.00 | 0.00 | 0.20 | 79 | 1014.9 |
| 20260507005504 | 68 | 58 | 0.9 | 0.9 | 0.00 | 0.00 | 0.20 | 78 | 1014.9 |
| 20260507005004 | 68 | 51 | 0.0 | 0.9 | 0.00 | 0.00 | 0.20 | 78 | 1014.9 |
| 20260507004505 | 68 | 38 | 0.9 | 0.9 | 0.00 | 0.00 | 0.20 | 78 | 1014.9 |
| 20260507004006 | 68 | 42 | 0.0 | 0.0 | 0.00 | 0.00 | 0.20 | 77 | 1014.9 |
| 20260507003504 | 68 | 55 | 0.0 | 0.0 | 0.00 | 0.00 | 0.20 | 78 | 1014.9 |
| 20260507003004 | 68 | 50 | 0.0 | 0.0 | 0.00 | 0.00 | 0.20 | 78 | 1014.9 |
| 20260507002504 | 68 | 51 | 0.9 | 0.9 | 0.00 | 0.00 | 0.20 | 78 | 1014.6 |
| 20260507002005 | 68 | 51 | 0.0 | 0.0 | 0.00 | 0.00 | 0.20 | 78 | 1014.6 |
| 20260507001505 | 68 | 52 | 0.0 | 0.0 | 0.00 | 0.00 | 0.20 | 78 | 1014.6 |
| 20260507001004 | 68 | 36 | 0.9 | 0.9 | 0.00 | 0.00 | 0.20 | 78 | 1014.6 |
| 20260507000505 | 68 | 57 | 0.0 | 0.0 | 0.00 | 0.00 | 0.20 | 77 | 1014.6 |
| 20260507000006 | 68 | 52 | 0.0 | 0.0 | 0.00 | 0.00 | 0.20 | 77 | 1014.6 |
| 20260506235017 | 69 | 49 | 0.0 | 0.0 | 0.00 | 0.00 | 0.20 | 76 | 1014.6 |
| 20260506234504 | 69 | 240 | 3.5 | 3.5 | 0.00 | 0.00 | 0.20 | 76 | 1014.2 |
| 20260506234005 | 69 | 25 | 0.9 | 0.9 | 0.00 | 0.00 | 0.20 | 75 | 1014.2 |
| 20260506233504 | 69 | 58 | 0.0 | 0.9 | 0.00 | 0.00 | 0.20 | 75 | 1014.2 |
| 20260506233005 | 69 | 63 | 0.0 | 0.0 | 0.00 | 0.00 | 0.20 | 74 | 1014.2 |
| 20260506232505 | 69 | 189 | 1.7 | 1.7 | 0.00 | 0.00 | 0.20 | 74 | 1014.2 |
| 20260506232004 | 70 | 18 | 0.9 | 0.9 | 0.00 | 0.00 | 0.20 | 74 | 1014.2 |
| 20260506231505 | 70 | 275 | 1.7 | 1.7 | 0.00 | 0.00 | 0.20 | 73 | 1014.2 |
| 20260506231004 | 70 | 65 | 0.9 | 0.9 | 0.00 | 0.00 | 0.20 | 72 | 1014.2 |
| 20260506230505 | 70 | 50 | 0.9 | 0.9 | 0.00 | 0.00 | 0.20 | 72 | 1014.2 |
| 20260506230004 | 71 | 51 | 0.0 | 0.0 | 0.00 | 0.00 | 0.20 | 71 | 1014.2 |
| 20260506225505 | 71 | 53 | 0.9 | 0.9 | 0.00 | 0.00 | 0.20 | 71 | 1014.2 |
| 20260506225004 | 71 | 33 | 0.9 | 1.7 | 0.00 | 0.00 | 0.20 | 70 | 1014.2 |
| 20260506224505 | 71 | 53 | 2.6 | 3.5 | 0.00 | 0.00 | 0.20 | 69 | 1013.9 |
| 20260506224004 | 72 | 71 | 0.9 | 0.9 | 0.00 | 0.00 | 0.20 | 67 | 1013.9 |
| 20260506223505 | 71 | 5 | 0.0 | 0.0 | 0.00 | 0.00 | 0.20 | 69 | 1014.2 |
| 20260506223004 | 70 | 54 | 0.0 | 0.0 | 0.00 | 0.00 | 0.20 | 71 | 1014.2 |
| 20260506222511 | 70 | 49 | 0.0 | 0.0 | 0.00 | 0.00 | 0.20 | 72 | 1014.2 |
| 20260506222004 | 70 | 57 | 0.0 | 0.0 | 0.00 | 0.00 | 0.20 | 72 | 1014.2 |
| 20260506221505 | 70 | 59 | 1.7 | 3.5 | 0.00 | 0.00 | 0.20 | 72 | 1014.2 |
| 20260506221005 | 70 | 82 | 0.9 | 0.9 | 0.00 | 0.00 | 0.20 | 71 | 1014.2 |
| 20260506220504 | 70 | 271 | 3.5 | 4.3 | 0.00 | 0.00 | 0.20 | 71 | 1014.2 |
| 20260506220004 | 70 | 46 | 0.0 | 0.9 | 0.00 | 0.00 | 0.20 | 71 | 1014.2 |
| 20260506215504 | 70 | 53 | 0.9 | 0.9 | 0.00 | 0.00 | 0.20 | 71 | 1014.2 |
| 20260506215006 | 71 | 66 | 0.0 | 0.9 | 0.00 | 0.00 | 0.20 | 70 | 1014.2 |
| 20260506214505 | 71 | 55 | 0.0 | 1.7 | 0.00 | 0.00 | 0.20 | 70 | 1013.9 |
| 20260506214004 | 71 | 114 | 0.9 | 3.5 | 0.00 | 0.00 | 0.20 | 69 | 1013.9 |
| 20260506213505 | 71 | 55 | 0.9 | 0.9 | 0.00 | 0.00 | 0.20 | 68 | 1013.9 |
| 20260506213005 | 72 | 86 | 1.7 | 1.7 | 0.00 | 0.00 | 0.20 | 67 | 1013.9 |
| 20260506212504 | 72 | 47 | 0.0 | 0.0 | 0.00 | 0.00 | 0.20 | 68 | 1013.9 |
| 20260506212005 | 72 | 70 | 1.7 | 2.6 | 0.00 | 0.00 | 0.20 | 68 | 1013.9 |
| 20260506211504 | 72 | 84 | 0.0 | 0.0 | 0.00 | 0.00 | 0.20 | 67 | 1013.9 |
| 20260506211008 | 71 | 80 | 0.9 | 1.7 | 0.00 | 0.00 | 0.20 | 67 | 1013.9 |
| 20260506210505 | 71 | 80 | 1.7 | 2.6 | 0.00 | 0.00 | 0.20 | 68 | 1013.9 |
| 20260506210005 | 71 | 40 | 1.7 | 1.7 | 0.00 | 0.00 | 0.20 | 68 | 1013.9 |
| 20260506205505 | 71 | 70 | 0.9 | 1.7 | 0.00 | 0.00 | 0.20 | 68 | 1013.9 |
| 20260506205004 | 71 | 260 | 0.9 | 0.9 | 0.00 | 0.00 | 0.20 | 68 | 1013.9 |
| 20260506204504 | 71 | 340 | 2.6 | 2.6 | 0.00 | 0.00 | 0.20 | 69 | 1013.9 |
| 20260506204004 | 70 | 63 | 1.7 | 2.6 | 0.00 | 0.00 | 0.20 | 69 | 1013.9 |
| 20260506203504 | 71 | 100 | 1.7 | 1.7 | 0.00 | 0.00 | 0.20 | 68 | 1013.9 |
| 20260506203004 | 71 | 118 | 0.9 | 1.7 | 0.00 | 0.00 | 0.20 | 68 | 1013.9 |
| 20260506202505 | 71 | 17 | 1.7 | 4.3 | 0.00 | 0.00 | 0.20 | 67 | 1013.9 |
| 20260506202005 | 71 | 74 | 1.7 | 1.7 | 0.00 | 0.00 | 0.20 | 67 | 1013.9 |
| 20260506201508 | 71 | 56 | 0.9 | 1.7 | 0.00 | 0.00 | 0.20 | 67 | 1013.9 |
| 20260506201004 | 72 | 99 | 1.7 | 3.5 | 0.00 | 0.00 | 0.20 | 66 | 1013.9 |
| 20260506200505 | 72 | 56 | 0.9 | 0.9 | 0.00 | 0.00 | 0.20 | 65 | 1013.9 |
| 20260506200004 | 73 | 85 | 0.9 | 0.9 | 0.00 | 0.00 | 0.20 | 64 | 1013.9 |
| 20260506195507 | 73 | 42 | 1.7 | 1.7 | 0.00 | 0.00 | 0.20 | 63 | 1013.9 |
| 20260506195011 | 74 | 64 | 1.7 | 1.7 | 0.00 | 0.00 | 0.20 | 62 | 1013.9 |
| 20260506194506 | 74 | 79 | 0.9 | 4.3 | 0.00 | 0.00 | 0.20 | 61 | 1013.9 |
| 20260506194005 | 74 | 323 | 2.6 | 3.5 | 0.00 | 0.00 | 0.20 | 62 | 1013.9 |
| 20260506193505 | 74 | 252 | 1.7 | 1.7 | 0.00 | 0.00 | 0.20 | 62 | 1013.9 |
| 20260506193004 | 75 | 28 | 1.7 | 1.7 | 0.00 | 0.00 | 0.20 | 62 | 1013.9 |
| 20260506192505 | 74 | 353 | 1.7 | 2.6 | 0.00 | 0.00 | 0.20 | 63 | 1013.9 |
| 20260506192004 | 73 | 53 | 1.7 | 2.6 | 0.00 | 0.00 | 0.20 | 63 | 1013.9 |
| 20260506191507 | 73 | 258 | 0.9 | 0.9 | 0.00 | 0.00 | 0.20 | 64 | 1013.9 |
| 20260506191004 | 72 | 2 | 2.6 | 3.5 | 0.00 | 0.00 | 0.20 | 65 | 1013.9 |
| 20260506190505 | 71 | 78 | 2.6 | 4.3 | 0.00 | 0.00 | 0.20 | 67 | 1013.9 |
| 20260506190005 | 71 | 90 | 0.9 | 1.7 | 0.00 | 0.00 | 0.20 | 68 | 1014.2 |
| 20260506185504 | 70 | 54 | 1.7 | 3.5 | 0.00 | 0.00 | 0.20 | 69 | 1014.2 |
| 20260506185004 | 69 | 194 | 1.7 | 2.6 | 0.00 | 0.00 | 0.20 | 71 | 1014.2 |
| 20260506184506 | 69 | 336 | 0.9 | 2.6 | 0.00 | 0.00 | 0.20 | 72 | 1014.2 |
| 20260506184005 | 69 | 262 | 4.3 | 4.3 | 0.00 | 0.00 | 0.20 | 72 | 1014.2 |
| 20260506183505 | 68 | 67 | 0.9 | 3.5 | 0.00 | 0.00 | 0.20 | 74 | 1014.2 |
| 20260506183005 | 67 | 73 | 0.9 | 1.7 | 0.00 | 0.00 | 0.20 | 76 | 1014.2 |
| 20260506182505 | 67 | 70 | 0.9 | 0.9 | 0.00 | 0.00 | 0.20 | 76 | 1014.2 |
| 20260506182004 | 67 | 61 | 0.9 | 2.6 | 0.00 | 0.00 | 0.20 | 77 | 1014.2 |
| 20260506181504 | 67 | 95 | 2.6 | 2.6 | 0.00 | 0.00 | 0.20 | 77 | 1014.2 |
| 20260506181005 | 67 | 83 | 2.6 | 3.5 | 0.00 | 0.00 | 0.20 | 77 | 1014.6 |
| 20260506180505 | 67 | 65 | 1.7 | 1.7 | 0.00 | 0.00 | 0.20 | 77 | 1014.6 |
| 20260506180006 | 66 | 82 | 2.6 | 3.5 | 0.00 | 0.00 | 0.20 | 77 | 1014.6 |
| 20260506175505 | 66 | 79 | 2.6 | 3.5 | 0.00 | 0.00 | 0.20 | 77 | 1014.6 |
| 20260506175005 | 66 | 18 | 0.9 | 1.7 | 0.00 | 0.00 | 0.20 | 78 | 1014.6 |
| 20260506174505 | 66 | 244 | 2.6 | 2.6 | 0.00 | 0.00 | 0.20 | 79 | 1014.6 |
| 20260506174005 | 66 | 166 | 1.7 | 3.5 | 0.00 | 0.00 | 0.20 | 79 | 1014.6 |
| 20260506173505 | 66 | 259 | 4.3 | 4.3 | 0.00 | 0.00 | 0.20 | 78 | 1014.6 |
| 20260506173005 | 66 | 77 | 1.7 | 1.7 | 0.00 | 0.00 | 0.20 | 79 | 1014.6 |
| 20260506172505 | 65 | 86 | 1.7 | 5.2 | 0.00 | 0.00 | 0.20 | 81 | 1014.6 |
| 20260506172004 | 65 | 343 | 1.7 | 5.2 | 0.00 | 0.00 | 0.20 | 81 | 1014.6 |
| 20260506171506 | 65 | 6 | 1.7 | 2.6 | 0.00 | 0.00 | 0.20 | 82 | 1014.6 |
| 20260506171004 | 65 | 55 | 2.6 | 4.3 | 0.00 | 0.00 | 0.20 | 82 | 1014.6 |
| 20260506170506 | 65 | 50 | 1.7 | 3.5 | 0.00 | 0.00 | 0.20 | 82 | 1014.6 |
| 20260506170006 | 65 | 90 | 1.7 | 1.7 | 0.00 | 0.00 | 0.20 | 84 | 1014.6 |
| 20260506165505 | 64 | 348 | 1.7 | 4.3 | 0.00 | 0.00 | 0.20 | 84 | 1014.6 |
| 20260506165005 | 64 | 55 | 1.7 | 2.6 | 0.00 | 0.00 | 0.20 | 84 | 1014.6 |
| 20260506164506 | 64 | 41 | 1.7 | 4.3 | 0.00 | 0.00 | 0.20 | 85 | 1014.6 |
| 20260506164005 | 63 | 60 | 1.7 | 1.7 | 0.00 | 0.00 | 0.20 | 86 | 1014.6 |
| 20260506163505 | 63 | 120 | 4.3 | 6.1 | 0.00 | 0.00 | 0.20 | 86 | 1014.6 |
| 20260506163005 | 63 | 266 | 2.6 | 4.3 | 0.00 | 0.00 | 0.20 | 87 | 1014.6 |
| 20260506162506 | 63 | 0 | 1.7 | 1.7 | 0.00 | 0.00 | 0.20 | 88 | 1014.6 |
| 20260506162004 | 63 | 253 | 1.7 | 2.6 | 0.00 | 0.00 | 0.20 | 88 | 1014.9 |
| 20260506161505 | 62 | 335 | 2.6 | 2.6 | 0.00 | 0.00 | 0.20 | 88 | 1014.9 |
| 20260506161006 | 62 | 54 | 1.7 | 5.2 | 0.00 | 0.00 | 0.20 | 88 | 1014.9 |
| 20260506160505 | 62 | 50 | 0.9 | 0.9 | 0.01 | 0.00 | 0.20 | 90 | 1014.9 |
| 20260506160005 | 62 | 59 | 0.9 | 4.3 | 0.01 | 0.00 | 0.20 | 89 | 1014.9 |
| 20260506155504 | 62 | 243 | 5.2 | 7.0 | 0.01 | 0.00 | 0.20 | 89 | 1014.9 |
| 20260506155005 | 62 | 247 | 2.6 | 7.0 | 0.01 | 0.00 | 0.20 | 90 | 1014.9 |
| 20260506154505 | 62 | 108 | 3.5 | 3.5 | 0.01 | 0.00 | 0.20 | 91 | 1014.9 |
| 20260506154005 | 61 | 69 | 3.5 | 7.8 | 0.02 | 0.00 | 0.20 | 91 | 1014.9 |
| 20260506153505 | 61 | 256 | 1.7 | 6.1 | 0.02 | 0.00 | 0.20 | 90 | 1014.9 |
| 20260506153005 | 61 | 80 | 0.9 | 2.6 | 0.03 | 0.00 | 0.20 | 91 | 1014.9 |
| 20260506152505 | 61 | 74 | 3.5 | 3.5 | 0.04 | 0.00 | 0.20 | 91 | 1014.9 |
| 20260506152005 | 61 | 347 | 1.7 | 1.7 | 0.05 | 0.00 | 0.20 | 91 | 1015.2 |
| 20260506151509 | 61 | 264 | 1.7 | 3.5 | 0.06 | 0.00 | 0.20 | 91 | 1015.2 |
| 20260506151005 | 61 | 275 | 0.9 | 2.6 | 0.08 | 0.00 | 0.20 | 91 | 1015.9 |
| 20260506150505 | 61 | 60 | 1.7 | 7.8 | 0.08 | 0.00 | 0.20 | 90 | 1015.9 |
| 20260506150005 | 61 | 62 | 0.9 | 5.2 | 0.09 | 0.00 | 0.19 | 91 | 1015.9 |
| 20260506145505 | 61 | 26 | 2.6 | 5.2 | 0.10 | 0.00 | 0.19 | 92 | 1015.9 |
| 20260506145005 | 61 | 301 | 3.5 | 7.0 | 0.11 | 0.00 | 0.19 | 91 | 1015.9 |
| 20260506144504 | 61 | 35 | 1.7 | 3.5 | 0.11 | 0.00 | 0.19 | 92 | 1015.9 |
| 20260506144004 | 61 | 231 | 1.7 | 1.7 | 0.12 | 0.00 | 0.18 | 92 | 1015.9 |
| 20260506143504 | 61 | 118 | 0.9 | 1.7 | 0.12 | 0.00 | 0.18 | 92 | 1015.9 |
| 20260506143005 | 61 | 56 | 3.5 | 8.7 | 0.11 | 0.00 | 0.18 | 91 | 1015.9 |
| 20260506142504 | 61 | 0 | 2.6 | 2.6 | 0.11 | 0.00 | 0.15 | 92 | 1015.9 |
| 20260506142005 | 61 | 282 | 1.7 | 4.3 | 0.10 | 0.00 | 0.15 | 92 | 1015.9 |
| 20260506141505 | 61 | 12 | 2.6 | 3.5 | 0.10 | 0.00 | 0.15 | 91 | 1015.9 |
| 20260506141005 | 61 | 136 | 1.7 | 2.6 | 0.09 | 0.00 | 0.13 | 91 | 1015.9 |
| 20260506140505 | 61 | 57 | 0.9 | 2.6 | 0.08 | 0.00 | 0.11 | 91 | 1015.9 |
| 20260506140005 | 61 | 99 | 2.6 | 7.0 | 0.07 | 0.00 | 0.10 | 90 | 1015.9 |
| 20260506135505 | 61 | 183 | 1.7 | 1.7 | 0.06 | 0.00 | 0.09 | 90 | 1015.9 |
| 20260506135006 | 61 | 23 | 1.7 | 1.7 | 0.06 | 0.00 | 0.07 | 89 | 1015.9 |
| 20260506134507 | 62 | 254 | 0.9 | 0.9 | 0.06 | 0.00 | 0.07 | 89 | 1016.3 |
| 20260506134005 | 62 | 83 | 0.9 | 0.9 | 0.06 | 0.00 | 0.07 | 89 | 1016.3 |
| 20260506133506 | 62 | 64 | 0.9 | 0.9 | 0.06 | 0.00 | 0.05 | 89 | 1016.6 |
| 20260506133005 | 62 | 53 | 0.9 | 0.9 | 0.06 | 0.00 | 0.05 | 89 | 1016.6 |
| 20260506132506 | 62 | 61 | 0.9 | 0.9 | 0.05 | 0.00 | 0.05 | 89 | 1016.3 |
| 20260506132005 | 62 | 302 | 2.6 | 2.6 | 0.05 | 0.00 | 0.05 | 88 | 1016.3 |
| 20260506131505 | 62 | 24 | 0.9 | 0.9 | 0.04 | 0.00 | 0.05 | 88 | 1016.3 |
| 20260506131005 | 62 | 0 | 0.9 | 0.9 | 0.03 | 0.00 | 0.02 | 87 | 1015.9 |
| 20260506130505 | 62 | 43 | 0.9 | 0.9 | 0.03 | 0.00 | 0.02 | 86 | 1015.9 |
| 20260506130005 | 62 | 68 | 0.9 | 0.9 | 0.03 | 0.00 | 0.01 | 86 | 1015.9 |
| 20260506125505 | 62 | 68 | 0.9 | 1.7 | 0.03 | 0.00 | 0.01 | 84 | 1015.9 |
| 20260506125005 | 62 | 67 | 0.9 | 0.9 | 0.02 | 0.00 | 0.01 | 84 | 1015.9 |
| 20260506124505 | 63 | 50 | 1.7 | 1.7 | 0.01 | 0.00 | 0.00 | 83 | 1015.9 |
| 20260506124005 | 63 | 274 | 0.9 | 0.9 | 0.01 | 0.00 | 0.00 | 81 | 1015.9 |
| 20260506123504 | 63 | 352 | 0.9 | 0.9 | 0.01 | 0.00 | 0.00 | 80 | 1015.9 |
| 20260506123004 | 63 | 269 | 1.7 | 5.2 | 0.00 | 0.00 | 0.00 | 78 | 1015.9 |
| 20260506122505 | 64 | 74 | 1.7 | 1.7 | 0.00 | 0.00 | 0.00 | 77 | 1016.3 |
| 20260506122004 | 64 | 61 | 0.9 | 1.7 | 0.00 | 0.00 | 0.00 | 76 | 1016.3 |
| 20260506121507 | 64 | 28 | 1.7 | 2.6 | 0.00 | 0.00 | 0.00 | 74 | 1016.3 |
| 20260506121004 | 64 | 44 | 0.9 | 0.9 | 0.00 | 0.00 | 0.00 | 74 | 1016.3 |
| 20260506120505 | 64 | 308 | 2.6 | 2.6 | 0.00 | 0.00 | 0.00 | 73 | 1016.3 |
| 20260506120005 | 65 | 69 | 0.0 | 0.9 | 0.00 | 0.00 | 0.00 | 72 | 1016.3 |
| 20260506115504 | 65 | 34 | 1.7 | 7.8 | 0.00 | 0.00 | 0.00 | 71 | 1016.3 |